Time;durP1;ratioP1;P1;durP2;ratioP2;P2;SDS_P1;SDS_P2;PMS_P1;PMS_P2;Temp;Humidity;BMP_temperature;BMP_pressure;BME280_temperature;BME280_humidity;BME280_pressure;Samples;Min_cycle;Max_cycle;Signal;HPM_P1;HPM_P2
2023/07/23 00:00:00;;;;;;;4.90;3.00;;;;;;;20.25;54.63;100840.38;5137738;27;20051;-65
2023/07/23 00:02:28;;;;;;;5.47;3.13;;;;;;;20.23;54.81;100834.41;5141567;27;20058;-65
2023/07/23 00:04:56;;;;;;;5.75;2.97;;;;;;;20.23;54.80;100834.41;5140445;27;20066;-65
2023/07/23 00:07:24;;;;;;;5.47;2.95;;;;;;;20.22;54.72;100829.22;5141791;27;20467;-65
2023/07/23 00:09:51;;;;;;;6.63;3.13;;;;;;;20.21;54.83;100827.59;5140304;27;20058;-66
2023/07/23 00:12:20;;;;;;;4.28;2.80;;;;;;;20.20;54.87;100817.78;5138228;27;20061;-66
2023/07/23 00:14:48;;;;;;;4.78;2.78;;;;;;;20.19;54.89;100818.88;5142421;27;20043;-66
2023/07/23 00:17:16;;;;;;;5.68;2.97;;;;;;;20.18;54.82;100809.06;5133086;27;20135;-66
2023/07/23 00:19:44;;;;;;;6.25;3.58;;;;;;;20.18;54.73;100814.53;5142822;27;20043;-66
2023/07/23 00:22:12;;;;;;;5.75;2.75;;;;;;;20.12;54.80;100800.13;5142161;27;20085;-66
2023/07/23 00:24:39;;;;;;;9.32;3.30;;;;;;;20.14;54.76;100803.38;5141416;27;20047;-66
2023/07/23 00:27:10;;;;;;;6.43;2.88;;;;;;;20.13;55.05;100799.00;5138544;27;20039;-66
2023/07/23 00:29:39;;;;;;;7.43;2.83;;;;;;;20.12;54.79;100795.47;5140040;27;20043;-66
2023/07/23 00:32:07;;;;;;;5.38;3.08;;;;;;;20.11;54.94;100791.13;5137617;27;20043;-66
2023/07/23 00:34:35;;;;;;;5.80;3.35;;;;;;;20.10;54.69;100785.94;5141265;27;20039;-66
2023/07/23 00:37:03;;;;;;;6.47;3.10;;;;;;;20.08;54.71;100778.03;5138717;27;20045;-66
2023/07/23 00:39:31;;;;;;;4.57;2.60;;;;;;;20.09;54.87;100770.69;5138626;27;20043;-66
2023/07/23 00:41:59;;;;;;;4.10;2.65;;;;;;;20.06;54.98;100766.59;5138366;27;20077;-66
2023/07/23 00:44:27;;;;;;;6.22;2.90;;;;;;;20.07;55.04;100764.69;5139590;27;20047;-66
2023/07/23 00:46:59;;;;;;;3.42;2.40;;;;;;;20.04;54.41;100757.06;5141851;27;20052;-66
2023/07/23 00:49:26;;;;;;;4.53;2.72;;;;;;;20.05;54.46;100753.25;5136482;27;20043;-66
2023/07/23 00:51:54;;;;;;;5.80;2.55;;;;;;;20.03;54.64;100748.09;5142458;27;20081;-66
2023/07/23 00:54:22;;;;;;;4.72;2.70;;;;;;;20.02;54.93;100742.91;5137546;27;20055;-65
2023/07/23 00:56:51;;;;;;;3.92;2.40;;;;;;;20.01;54.84;100742.09;5140878;27;20044;-65
2023/07/23 00:59:19;;;;;;;4.07;2.60;;;;;;;19.99;54.87;100733.38;5141404;27;20042;-65
2023/07/23 01:01:48;;;;;;;3.83;2.40;;;;;;;20.00;54.96;100737.75;5138155;27;20050;-66
2023/07/23 01:04:17;;;;;;;5.60;2.47;;;;;;;19.99;55.11;100730.66;5136494;27;20051;-65
2023/07/23 01:06:45;;;;;;;7.53;3.85;;;;;;;19.99;55.02;100724.38;5138930;27;20092;-66
2023/07/23 01:09:14;;;;;;;6.13;3.03;;;;;;;19.98;54.78;100720.03;5140191;27;20048;-65
2023/07/23 01:11:42;;;;;;;6.15;2.80;;;;;;;19.97;54.80;100716.50;5139182;27;20118;-65
2023/07/23 01:14:10;;;;;;;4.75;2.85;;;;;;;19.97;54.91;100707.50;5140549;28;20055;-65
2023/07/23 01:16:39;;;;;;;5.55;2.90;;;;;;;19.96;55.02;100712.13;5134903;28;20155;-65
2023/07/23 01:19:08;;;;;;;6.43;3.67;;;;;;;19.95;55.04;100702.31;5140743;28;20047;-65
2023/07/23 01:21:37;;;;;;;7.90;3.10;;;;;;;19.93;54.73;100696.34;5140223;28;20112;-65
2023/07/23 01:24:07;;;;;;;6.32;3.17;;;;;;;19.94;54.79;100694.44;5137997;28;20147;-65
2023/07/23 01:26:34;;;;;;;6.63;3.20;;;;;;;19.93;55.01;100693.63;5140478;28;20054;-65
2023/07/23 01:29:02;;;;;;;10.00;3.30;;;;;;;19.93;54.88;100690.88;5140790;27;20043;-65
2023/07/23 01:31:30;;;;;;;5.10;3.03;;;;;;;19.91;54.56;100682.19;5140199;28;20055;-65
2023/07/23 01:34:04;;;;;;;5.60;2.78;;;;;;;19.90;54.94;100680.56;5141030;27;20055;-65
2023/07/23 01:36:32;;;;;;;6.25;2.92;;;;;;;19.90;54.82;100671.56;5143315;27;20465;-65
2023/07/23 01:39:00;;;;;;;8.68;2.97;;;;;;;19.89;54.95;100675.38;5145816;27;20040;-66
2023/07/23 01:41:29;;;;;;;5.57;2.95;;;;;;;19.89;55.06;100672.66;5144793;27;20055;-65
2023/07/23 01:44:01;;;;;;;5.03;2.85;;;;;;;19.87;54.99;100664.75;5142085;27;20054;-66
2023/07/23 01:46:29;;;;;;;4.10;2.53;;;;;;;19.87;54.95;100661.22;5142608;27;20043;-65
2023/07/23 01:48:56;;;;;;;7.10;2.67;;;;;;;19.84;54.54;100659.88;5144897;27;20103;-66
2023/07/23 01:51:24;;;;;;;5.35;2.90;;;;;;;19.83;54.64;100656.34;5143158;27;20169;-66
2023/07/23 01:53:53;;;;;;;5.03;2.92;;;;;;;19.83;54.44;100653.63;5141104;27;20056;-66
2023/07/23 01:56:20;;;;;;;3.67;2.45;;;;;;;19.81;54.68;100642.19;5144255;27;20107;-66
2023/07/23 01:58:49;;;;;;;4.75;2.60;;;;;;;19.80;54.34;100643.28;5144569;27;20051;-65
2023/07/23 02:01:17;;;;;;;6.25;2.75;;;;;;;19.79;54.52;100638.13;5142122;27;20047;-65
2023/07/23 02:03:45;;;;;;;3.78;2.58;;;;;;;19.79;54.43;100638.94;5144035;27;20158;-65
2023/07/23 02:06:13;;;;;;;5.00;2.97;;;;;;;19.78;54.30;100631.03;5144190;27;20074;-66
2023/07/23 02:08:41;;;;;;;8.38;2.80;;;;;;;19.77;54.30;100638.41;5147032;27;20576;-65
2023/07/23 02:11:08;;;;;;;5.40;3.10;;;;;;;19.76;54.29;100631.31;5142207;27;20100;-65
2023/07/23 02:13:36;;;;;;;6.00;3.22;;;;;;;19.75;54.15;100621.53;5146261;27;20043;-65
2023/07/23 02:16:06;;;;;;;5.18;2.80;;;;;;;19.74;54.07;100619.09;5143705;27;20072;-65
2023/07/23 02:18:33;;;;;;;4.65;2.78;;;;;;;19.73;53.97;100615.53;5146250;27;20039;-65
2023/07/23 02:21:01;;;;;;;4.90;2.60;;;;;;;19.65;54.16;100601.72;5143213;27;20138;-65
2023/07/23 02:23:29;;;;;;;4.78;2.83;;;;;;;19.72;53.87;100615.81;5145265;27;20043;-65
2023/07/23 02:25:57;;;;;;;5.28;2.63;;;;;;;19.70;54.03;100607.13;5141632;27;20067;-65
2023/07/23 02:28:25;;;;;;;3.72;2.45;;;;;;;19.68;53.86;100603.88;5146754;27;20076;-65
2023/07/23 02:30:57;;;;;;;5.82;2.92;;;;;;;19.68;53.62;100607.41;5143640;27;20046;-65
2023/07/23 02:33:27;;;;;;;3.72;2.53;;;;;;;19.66;53.69;100598.72;5145784;27;20073;-65
2023/07/23 02:35:54;;;;;;;4.13;2.63;;;;;;;19.66;53.66;100600.63;5142696;27;20046;-64
2023/07/23 02:38:22;;;;;;;5.05;2.80;;;;;;;19.66;53.83;100600.63;5143387;27;20084;-65
2023/07/23 02:40:55;;;;;;;5.43;3.10;;;;;;;19.66;53.66;100597.91;5143019;27;20067;-65
2023/07/23 02:43:23;;;;;;;7.78;2.55;;;;;;;19.65;53.60;100593.53;5141356;27;20047;-65
2023/07/23 02:45:52;;;;;;;5.28;3.35;;;;;;;19.63;53.58;100591.09;5140721;27;20067;-65
2023/07/23 02:48:19;;;;;;;5.60;3.25;;;;;;;19.64;53.73;100597.38;5140831;27;20054;-65
2023/07/23 02:50:48;;;;;;;4.78;2.88;;;;;;;19.62;53.58;100592.19;5139473;27;20393;-65
2023/07/23 02:53:16;;;;;;;5.45;2.72;;;;;;;19.62;53.49;100591.41;5142832;27;20456;-65
2023/07/23 02:55:45;;;;;;;4.95;2.95;;;;;;;19.62;53.55;100585.94;5142544;27;20174;-65
2023/07/23 02:58:12;;;;;;;3.47;2.10;;;;;;;19.61;53.34;100587.03;5143553;27;20513;-65
2023/07/23 03:00:40;;;;;;;6.60;2.72;;;;;;;19.59;53.39;100581.88;5142403;27;20042;-65
2023/07/23 03:03:08;;;;;;;6.05;3.38;;;;;;;19.58;53.36;100579.44;5142422;27;20047;-65
2023/07/23 03:05:37;;;;;;;5.43;3.10;;;;;;;19.59;53.58;100578.34;5139751;27;20376;-65
2023/07/23 03:08:07;;;;;;;5.43;2.55;;;;;;;19.59;53.20;100581.88;5143793;27;20084;-65
2023/07/23 03:10:35;;;;;;;5.07;3.00;;;;;;;19.57;53.17;100578.63;5136170;27;20213;-65
2023/07/23 03:13:03;;;;;;;6.10;2.97;;;;;;;19.57;53.35;100580.53;5139375;27;20468;-64
2023/07/23 03:15:31;;;;;;;5.47;3.13;;;;;;;19.56;53.15;100570.75;5142297;27;20047;-65
2023/07/23 03:17:59;;;;;;;4.50;2.72;;;;;;;19.56;53.06;100571.53;5140548;27;20035;-66
2023/07/23 03:20:27;;;;;;;5.47;3.42;;;;;;;19.54;53.31;100572.94;5142540;27;20130;-66
2023/07/23 03:22:54;;;;;;;4.75;3.13;;;;;;;19.55;53.36;100574.56;5148063;27;20048;-65
2023/07/23 03:25:24;;;;;;;4.82;3.13;;;;;;;19.56;53.25;100570.75;5139793;27;20048;-65
2023/07/23 03:27:51;;;;;;;4.00;2.53;;;;;;;19.54;53.18;100565.56;5143710;27;20053;-65
2023/07/23 03:30:19;;;;;;;6.15;3.17;;;;;;;19.55;53.14;100563.66;5144058;27;20151;-65
2023/07/23 03:32:47;;;;;;;5.30;3.33;;;;;;;19.52;53.14;100562.31;5146893;27;20047;-65
2023/07/23 03:35:15;;;;;;;4.65;2.88;;;;;;;19.54;53.01;100567.47;5141074;27;20051;-65
2023/07/23 03:37:43;;;;;;;4.55;3.22;;;;;;;19.53;53.15;100563.94;5143952;27;20042;-65
2023/07/23 03:40:11;;;;;;;6.03;3.45;;;;;;;19.52;53.20;100578.69;5141409;27;20043;-65
2023/07/23 03:42:40;;;;;;;4.20;2.72;;;;;;;19.50;53.13;100573.47;5140982;27;20119;-65
2023/07/23 03:45:09;;;;;;;4.72;3.25;;;;;;;19.52;52.90;100572.41;5142201;27;20524;-65
2023/07/23 03:47:37;;;;;;;7.32;3.20;;;;;;;19.49;52.73;100569.13;5138707;27;20210;-65
2023/07/23 03:50:06;;;;;;;7.00;3.45;;;;;;;19.49;52.79;100573.78;5140142;27;20438;-66
2023/07/23 03:52:34;;;;;;;4.72;3.13;;;;;;;19.49;52.85;100573.78;5141636;27;20043;-65
2023/07/23 03:55:01;;;;;;;4.45;3.20;;;;;;;19.48;52.91;100566.69;5142681;27;20039;-65
2023/07/23 03:57:29;;;;;;;6.63;2.88;;;;;;;19.48;52.84;100569.41;5139808;27;20043;-65
2023/07/23 03:59:59;;;;;;;4.13;2.83;;;;;;;19.46;52.74;100564.25;5140346;27;20035;-66
2023/07/23 04:02:26;;;;;;;5.85;3.10;;;;;;;19.46;52.92;100569.69;5140506;27;20039;-65
2023/07/23 04:04:54;;;;;;;5.68;3.47;;;;;;;19.36;52.86;100553.44;5142276;27;20055;-65
2023/07/23 04:07:22;;;;;;;8.00;3.67;;;;;;;19.43;52.74;100564.84;5142015;27;20051;-65
2023/07/23 04:09:50;;;;;;;6.85;2.78;;;;;;;19.43;52.81;100566.75;5140884;27;20039;-66
2023/07/23 04:12:17;;;;;;;5.25;2.70;;;;;;;19.42;52.80;100563.19;5138908;27;20123;-65
2023/07/23 04:14:45;;;;;;;4.70;2.67;;;;;;;19.40;52.62;100570.84;5139972;27;20051;-66
2023/07/23 04:17:14;;;;;;;4.82;2.58;;;;;;;19.40;52.72;100567.31;5139446;27;20086;-66
2023/07/23 04:19:44;;;;;;;5.60;3.08;;;;;;;19.39;52.77;100571.13;5141830;27;20187;-65
2023/07/23 04:22:12;;;;;;;7.03;3.85;;;;;;;19.38;52.53;100567.59;5139472;27;20058;-66
2023/07/23 04:24:40;;;;;;;6.80;3.10;;;;;;;19.37;52.67;100568.69;5141229;27;20096;-65
2023/07/23 04:27:08;;;;;;;5.45;2.75;;;;;;;19.38;52.58;100573.06;5137771;27;20065;-65
2023/07/23 04:29:36;;;;;;;6.55;2.85;;;;;;;19.37;52.57;100570.63;5140642;27;20043;-65
2023/07/23 04:32:04;;;;;;;4.57;2.75;;;;;;;19.35;52.51;100565.44;5139062;27;20062;-65
2023/07/23 04:34:33;;;;;;;4.70;2.75;;;;;;;19.35;52.64;100570.09;5137974;27;20051;-65
2023/07/23 04:37:01;;;;;;;3.67;2.42;;;;;;;19.34;52.53;100572.00;5139499;27;20051;-66
2023/07/23 04:39:28;;;;;;;4.05;2.88;;;;;;;19.34;52.47;100573.91;5138966;27;20060;-65
2023/07/23 04:41:56;;;;;;;5.03;3.03;;;;;;;19.33;52.39;100567.66;5141113;27;20136;-66
2023/07/23 04:44:24;;;;;;;7.05;2.50;;;;;;;19.33;52.46;100572.28;5143959;27;20082;-65
2023/07/23 04:46:52;;;;;;;4.57;2.60;;;;;;;19.32;52.28;100568.75;5143991;27;20127;-66
2023/07/23 04:49:19;;;;;;;4.53;2.97;;;;;;;19.32;52.36;100570.66;5139198;27;20035;-67
2023/07/23 04:51:49;;;;;;;4.90;2.58;;;;;;;19.32;52.29;100567.94;5142032;27;20111;-66
2023/07/23 04:54:16;;;;;;;5.10;2.95;;;;;;;19.31;52.14;100564.41;5142304;27;20039;-66
2023/07/23 04:56:44;;;;;;;5.70;2.85;;;;;;;19.31;52.40;100563.59;5138617;27;20043;-66
2023/07/23 04:59:12;;;;;;;5.35;2.90;;;;;;;19.30;52.01;100564.69;5135308;27;20047;-66
2023/07/23 05:01:40;;;;;;;4.88;2.80;;;;;;;19.30;52.08;100559.22;4783755;27;10000036;-66
2023/07/23 05:04:10;;;;;;;3.53;2.50;;;;;;;19.28;52.03;100554.06;5135081;27;20351;-65
2023/07/23 05:06:37;;;;;;;5.18;2.90;;;;;;;19.29;52.19;100555.69;5140309;27;20046;-66
2023/07/23 05:09:06;;;;;;;5.53;2.70;;;;;;;19.34;52.22;100549.38;5140399;27;20096;-66
2023/07/23 05:11:34;;;;;;;6.75;2.50;;;;;;;19.39;52.73;100558.31;5139185;27;20072;-67
2023/07/23 05:14:02;;;;;;;3.92;2.42;;;;;;;19.34;52.27;100557.56;5138548;27;20050;-67
2023/07/23 05:16:30;;;;;;;4.03;2.22;;;;;;;19.32;52.31;100566.03;5141348;27;20096;-66
2023/07/23 05:18:58;;;;;;;5.18;2.65;;;;;;;19.31;52.42;100567.13;5140873;27;20092;-66
2023/07/23 05:21:26;;;;;;;5.68;2.50;;;;;;;19.31;52.32;100567.13;5138783;27;20050;-67
2023/07/23 05:23:54;;;;;;;5.25;3.05;;;;;;;19.31;52.26;100571.75;5139904;28;20082;-65
2023/07/23 05:26:23;;;;;;;5.32;2.90;;;;;;;19.45;53.00;100562.63;5140759;27;20063;-65
2023/07/23 05:28:51;;;;;;;3.72;2.38;;;;;;;19.49;53.03;100568.31;5138432;27;20046;-67
2023/07/23 05:31:19;;;;;;;6.70;2.63;;;;;;;19.41;52.49;100569.75;5139983;27;20043;-65
2023/07/23 05:33:46;;;;;;;4.10;2.40;;;;;;;19.36;52.57;100558.09;5139147;27;20118;-65
2023/07/23 05:36:14;;;;;;;4.38;2.53;;;;;;;19.43;52.53;100561.28;5138834;28;20055;-66
2023/07/23 05:38:42;;;;;;;3.88;2.50;;;;;;;19.39;52.77;100563.78;5138635;28;20070;-64
2023/07/23 05:41:10;;;;;;;6.18;2.80;;;;;;;19.42;52.65;100562.38;5140809;27;20069;-67
2023/07/23 05:43:39;;;;;;;4.28;2.40;;;;;;;19.33;52.78;100551.31;5134725;27;20065;-68
2023/07/23 05:46:08;;;;;;;5.75;3.33;;;;;;;19.45;52.76;100554.44;5135369;28;20064;-67
2023/07/23 05:48:35;;;;;;;4.93;2.78;;;;;;;19.39;52.86;100561.06;5134907;28;20124;-67
2023/07/23 05:51:03;;;;;;;5.50;2.33;;;;;;;19.35;52.84;100561.91;5140319;28;20091;-67
2023/07/23 05:53:31;;;;;;;4.65;2.47;;;;;;;19.32;53.27;100555.13;5138407;28;20062;-68
2023/07/23 05:55:59;;;;;;;4.07;2.60;;;;;;;19.34;52.97;100560.28;5139102;27;20039;-69
2023/07/23 05:58:28;;;;;;;3.75;2.30;;;;;;;19.32;53.15;100560.56;5138392;27;20043;-70
2023/07/23 06:00:57;;;;;;;6.30;2.20;;;;;;;19.47;52.62;100565.06;5135265;28;20608;-67
2023/07/23 06:03:25;;;;;;;4.97;3.30;;;;;;;19.36;53.07;100561.63;5139137;28;20039;-65
2023/07/23 06:06:03;;;;;;;5.72;2.72;;;;;;;19.42;52.85;100559.66;5139386;28;20069;-64
2023/07/23 06:08:31;;;;;;;3.53;2.40;;;;;;;19.34;53.17;100558.38;5134854;27;20592;-64
2023/07/23 06:10:59;;;;;;;4.35;2.45;;;;;;;19.35;53.01;100568.19;5131927;27;20063;-64
2023/07/23 06:13:26;;;;;;;9.85;2.67;;;;;;;19.36;53.34;100564.34;5134309;27;20485;-63
2023/07/23 06:15:54;;;;;;;7.47;2.40;;;;;;;19.43;54.46;100564.00;5134673;27;20047;-66
2023/07/23 06:18:23;;;;;;;4.65;2.47;;;;;;;19.30;54.01;100570.94;5137931;27;20147;-68
2023/07/23 06:20:51;;;;;;;4.22;2.40;;;;;;;19.30;54.26;100570.13;5140778;27;20039;-68
2023/07/23 06:23:19;;;;;;;4.82;2.95;;;;;;;19.30;54.08;100561.97;5141002;27;20348;-67
2023/07/23 06:25:47;;;;;;;6.63;2.65;;;;;;;19.33;54.08;100572.28;5137203;27;20149;-67
2023/07/23 06:28:14;;;;;;;7.50;2.75;;;;;;;19.42;53.85;100573.28;5140195;27;20047;-66
2023/07/23 06:30:42;;;;;;;3.33;2.08;;;;;;;19.32;54.02;100568.75;5139304;27;20100;-68
2023/07/23 06:33:10;;;;;;;5.68;2.58;;;;;;;19.29;54.18;100576.69;5135024;27;21044;-67
2023/07/23 06:35:43;;;;;;;5.00;2.60;;;;;;;19.30;54.48;100572.88;5141542;27;20467;-68
2023/07/23 06:38:11;;;;;;;5.85;2.35;;;;;;;19.26;54.73;100574.53;5144643;27;20047;-67
2023/07/23 06:40:45;;;;;;;3.38;2.40;;;;;;;19.29;55.08;100579.41;5140725;27;20084;-67
2023/07/23 06:43:13;;;;;;;5.65;2.58;;;;;;;19.27;54.39;100587.06;5142154;27;20055;-68
2023/07/23 06:45:41;;;;;;;3.42;2.25;;;;;;;19.27;54.67;100582.41;5137347;27;20043;-67
2023/07/23 06:48:09;;;;;;;4.18;2.42;;;;;;;19.24;54.52;100583.00;5148319;27;20043;-67
2023/07/23 06:50:38;;;;;;;6.70;2.75;;;;;;;19.23;54.51;100584.09;5139450;27;20468;-66
2023/07/23 06:53:07;;;;;;;4.40;2.45;;;;;;;19.23;54.84;100592.25;5142181;27;20095;-66
2023/07/23 06:55:56;;;;;;;4.28;2.65;;;;;;;19.24;54.45;100588.44;5145839;27;20058;-68
2023/07/23 06:58:24;;;;;;;2.80;2.10;;;;;;;19.23;54.35;100592.25;5146807;27;20055;-67
2023/07/23 07:00:52;;;;;;;4.50;2.55;;;;;;;19.23;54.46;100602.34;5138979;27;20050;-67
2023/07/23 07:03:20;;;;;;;3.97;2.28;;;;;;;19.21;54.52;100589.00;5141680;27;20051;-67
2023/07/23 07:05:49;;;;;;;6.25;2.38;;;;;;;19.22;54.27;100595.28;5146708;27;20094;-66
2023/07/23 07:08:17;;;;;;;5.20;2.85;;;;;;;19.23;54.62;100603.16;5139222;27;20051;-67
2023/07/23 07:10:46;;;;;;;5.65;2.35;;;;;;;19.62;54.10;100596.84;5139441;27;20504;-67
2023/07/23 07:13:14;;;;;;;4.20;2.92;;;;;;;19.43;54.27;100608.44;5140784;27;20047;-67
2023/07/23 07:15:42;;;;;;;4.50;2.45;;;;;;;19.38;54.15;100604.94;5141169;27;20043;-67
2023/07/23 07:18:10;;;;;;;4.82;3.13;;;;;;;19.29;54.44;100595.75;5146890;27;20110;-67
2023/07/23 07:20:38;;;;;;;5.38;2.53;;;;;;;19.26;54.59;100590.88;5142974;27;20074;-67
2023/07/23 07:23:07;;;;;;;4.07;3.05;;;;;;;19.26;55.00;100601.78;5146762;27;20096;-67
2023/07/23 07:25:37;;;;;;;5.40;2.95;;;;;;;19.18;55.56;100590.41;5145678;27;20051;-67
2023/07/23 07:28:06;;;;;;;7.00;3.00;;;;;;;19.21;55.51;100599.91;5143531;27;20055;-67
2023/07/23 07:30:33;;;;;;;7.82;3.70;;;;;;;19.16;55.13;100589.06;5138489;27;20333;-67
2023/07/23 07:33:01;;;;;;;5.93;2.78;;;;;;;19.18;55.15;100590.41;5145469;27;20068;-67
2023/07/23 07:35:29;;;;;;;4.10;2.78;;;;;;;19.17;55.10;100599.66;5144274;27;20043;-67
2023/07/23 07:37:57;;;;;;;3.55;2.55;;;;;;;19.18;55.53;100600.47;5143036;27;20055;-67
2023/07/23 07:40:27;;;;;;;8.85;3.90;;;;;;;19.18;55.52;100600.47;5143905;27;20381;-67
2023/07/23 07:42:55;;;;;;;7.22;3.00;;;;;;;19.19;55.63;100599.38;5143181;27;20059;-68
2023/07/23 07:45:23;;;;;;;4.40;3.30;;;;;;;19.18;55.50;100600.47;5145204;27;20412;-68
2023/07/23 07:47:50;;;;;;;3.95;2.90;;;;;;;19.18;56.12;100600.47;5144152;27;20061;-68
2023/07/23 07:50:18;;;;;;;5.13;3.38;;;;;;;19.17;56.11;100601.56;5138223;27;20051;-73
2023/07/23 07:52:47;;;;;;;5.45;3.15;;;;;;;19.17;58.13;100596.94;5144190;27;20055;-64
2023/07/23 07:55:15;;;;;;;6.72;3.67;;;;;;;19.16;57.98;100599.94;5145360;27;20561;-67
2023/07/23 07:57:45;;;;;;;4.55;3.38;;;;;;;19.15;58.09;100604.59;5141143;27;20124;-67
2023/07/23 08:00:13;;;;;;;6.38;3.20;;;;;;;19.14;57.87;100591.25;5143607;27;20607;-66
2023/07/23 08:02:42;;;;;;;7.63;3.70;;;;;;;19.26;57.91;100605.31;5143077;27;20377;-67
2023/07/23 08:05:11;;;;;;;13.02;3.17;;;;;;;19.27;57.81;100596.03;5138710;27;20092;-66
2023/07/23 08:07:39;;;;;;;5.38;3.67;;;;;;;19.32;57.62;100600.63;5146258;27;20050;-66
2023/07/23 08:10:09;;;;;;;5.47;3.00;;;;;;;19.35;57.70;100595.44;5140616;27;20055;-66
2023/07/23 08:12:37;;;;;;;4.18;2.90;;;;;;;19.25;58.19;100591.97;5145335;27;20096;-66
2023/07/23 08:15:09;;;;;;;6.10;3.40;;;;;;;19.19;58.24;100600.19;5142805;27;20043;-66
2023/07/23 08:17:37;;;;;;;5.72;3.40;;;;;;;19.17;58.27;100594.22;5145059;27;20134;-66
2023/07/23 08:20:07;;;;;;;5.20;3.78;;;;;;;19.16;58.49;100600.75;5141589;27;20043;-67
2023/07/23 08:22:35;;;;;;;8.77;2.90;;;;;;;19.19;58.27;100602.91;5145631;27;20055;-67
2023/07/23 08:25:03;;;;;;;4.15;2.50;;;;;;;19.25;58.17;100597.44;5147297;27;20412;-67
2023/07/23 08:27:33;;;;;;;4.25;3.28;;;;;;;19.26;58.31;100599.88;5145337;27;20050;-67
2023/07/23 08:30:01;;;;;;;5.55;3.38;;;;;;;19.21;58.24;100599.09;5145217;27;20529;-65
2023/07/23 08:32:32;;;;;;;5.90;3.67;;;;;;;19.18;58.29;100601.28;5141114;27;20152;-67
2023/07/23 08:35:00;;;;;;;5.25;2.90;;;;;;;19.18;59.27;100604.00;5140382;27;20070;-70
2023/07/23 08:37:28;;;;;;;6.22;3.10;;;;;;;19.14;59.21;100599.41;5139638;27;20078;-67
2023/07/23 08:39:56;;;;;;;4.40;2.90;;;;;;;19.12;59.61;100594.25;5144783;27;20055;-68
2023/07/23 08:42:55;;;;;;;4.05;3.03;;;;;;;19.15;59.45;100596.41;5139036;27;20050;-67
2023/07/23 08:45:58;;;;;;;3.63;2.60;;;;;;;19.13;59.49;100598.59;5135759;27;20051;-67
2023/07/23 08:48:48;;;;;;;3.67;2.72;;;;;;;19.17;59.41;100607.03;5141561;27;20047;-67
2023/07/23 08:51:16;;;;;;;5.60;2.55;;;;;;;19.29;58.97;100596.56;5141257;27;20043;-67
2023/07/23 08:53:44;;;;;;;6.70;2.90;;;;;;;19.27;58.82;100585.16;5141970;27;20116;-67
2023/07/23 08:56:12;;;;;;;5.13;2.55;;;;;;;19.24;58.88;100593.88;5137866;27;20110;-67
2023/07/23 08:58:42;;;;;;;3.85;2.80;;;;;;;19.23;59.01;100597.72;5142632;27;20054;-67
2023/07/23 09:01:11;;;;;;;4.47;2.42;;;;;;;19.20;59.26;100592.84;5143730;27;20066;-67
2023/07/23 09:03:41;;;;;;;6.68;2.00;;;;;;;19.34;58.99;100599.25;5140569;27;20130;-67
2023/07/23 09:06:09;;;;;;;4.28;2.70;;;;;;;19.41;58.64;100590.75;5136098;27;20039;-65
2023/07/23 09:08:37;;;;;;;3.55;2.72;;;;;;;19.32;58.84;100606.91;5142920;27;20142;-66
2023/07/23 09:11:06;;;;;;;4.35;2.28;;;;;;;19.29;58.86;100598.47;5140570;27;20042;-66
2023/07/23 09:13:36;;;;;;;2.90;2.22;;;;;;;19.26;59.04;100604.50;5142902;27;20445;-66
2023/07/23 09:16:05;;;;;;;3.63;2.25;;;;;;;19.26;59.25;100599.88;5142058;28;20055;-67
2023/07/23 09:18:38;;;;;;;2.85;2.10;;;;;;;19.25;59.13;100603.69;5140015;28;20044;-65
2023/07/23 09:21:09;;;;;;;3.03;2.28;;;;;;;19.34;59.00;100603.88;5142038;28;20093;-65
2023/07/23 09:23:37;;;;;;;3.65;2.45;;;;;;;19.46;58.90;100598.88;5143722;28;20138;-66
2023/07/23 09:26:08;;;;;;;3.55;2.30;;;;;;;19.48;58.71;100607.56;5139665;27;20491;-65
2023/07/23 09:28:36;;;;;;;3.05;2.20;;;;;;;19.43;59.19;100607.63;5144219;27;20087;-65
2023/07/23 09:31:04;;;;;;;3.35;2.03;;;;;;;19.60;58.41;100602.59;5142526;28;20433;-66
2023/07/23 09:33:34;;;;;;;3.10;2.50;;;;;;;19.44;59.24;100610.06;5136372;28;20039;-65
2023/07/23 09:36:03;;;;;;;3.80;2.15;;;;;;;19.68;59.04;100612.06;5135796;28;20059;-66
2023/07/23 09:38:34;;;;;;;2.60;1.95;;;;;;;19.48;59.23;100613.84;5138647;28;20058;-64
2023/07/23 09:41:02;;;;;;;3.28;1.90;;;;;;;19.46;59.30;100613.31;5142976;28;20106;-65
2023/07/23 09:43:30;;;;;;;2.63;2.00;;;;;;;19.47;59.22;100609.50;5143489;28;20058;-66
2023/07/23 09:45:58;;;;;;;3.58;2.17;;;;;;;19.38;59.57;100608.47;5136738;28;20050;-70
2023/07/23 09:48:27;;;;;;;2.72;1.88;;;;;;;19.31;59.79;100610.72;5140852;28;20047;-65
2023/07/23 09:50:58;;;;;;;3.33;1.92;;;;;;;19.33;59.99;100599.53;5134528;27;20073;-64
2023/07/23 09:53:29;;;;;;;3.10;2.20;;;;;;;19.34;59.69;100610.16;5133512;28;20050;-64
2023/07/23 09:56:00;;;;;;;2.60;2.08;;;;;;;19.32;59.86;100612.34;5140606;27;20130;-64
2023/07/23 09:58:30;;;;;;;4.18;2.28;;;;;;;19.30;59.75;100616.47;5146933;27;20061;-65
2023/07/23 10:00:58;;;;;;;3.58;2.20;;;;;;;19.36;60.25;100612.59;5142496;27;20056;-65
2023/07/23 10:03:26;;;;;;;3.33;2.10;;;;;;;19.35;60.21;100617.22;5139183;27;20047;-64
2023/07/23 10:05:55;;;;;;;2.70;1.73;;;;;;;19.30;60.30;100616.47;5144103;27;20047;-62
2023/07/23 10:08:24;;;;;;;1.75;1.50;;;;;;;19.59;59.96;100617.31;5142677;27;20051;-64
2023/07/23 10:10:51;;;;;;;2.40;1.90;;;;;;;19.53;59.48;100621.19;5140970;27;20150;-66
2023/07/23 10:13:21;;;;;;;3.10;2.03;;;;;;;19.60;59.21;100629.03;5143416;27;20048;-67
2023/07/23 10:15:50;;;;;;;3.47;2.10;;;;;;;19.50;59.84;100625.28;5146014;27;20120;-66
2023/07/23 10:18:20;;;;;;;2.90;1.98;;;;;;;19.54;59.41;100625.53;5143500;27;20043;-66
2023/07/23 10:20:48;;;;;;;3.05;1.90;;;;;;;19.48;60.11;100618.47;5145914;27;20080;-65
2023/07/23 10:23:16;;;;;;;3.17;1.95;;;;;;;19.42;60.39;100625.06;5139199;27;20040;-65
2023/07/23 10:25:44;;;;;;;3.17;1.55;;;;;;;19.36;60.30;100624.31;5139045;27;20112;-66
2023/07/23 10:28:23;;;;;;;4.43;1.60;;;;;;;19.41;60.43;100621.53;5138231;27;20055;-65
2023/07/23 10:31:19;;;;;;;2.05;1.50;;;;;;;19.34;60.09;100612.06;5139703;27;20086;-64
2023/07/23 10:33:47;;;;;;;2.30;1.80;;;;;;;19.39;60.43;100626.47;5143716;27;20043;-67
2023/07/23 10:36:15;;;;;;;4.72;2.03;;;;;;;19.60;60.30;100632.56;5142585;27;20059;-65
2023/07/23 10:38:43;;;;;;;2.25;1.48;;;;;;;19.49;60.34;100623.66;5142534;27;20043;-65
2023/07/23 10:41:11;;;;;;;3.00;1.63;;;;;;;19.43;60.71;100627.50;5142199;27;20091;-66
2023/07/23 10:43:42;;;;;;;4.00;1.90;;;;;;;19.49;60.77;100620.09;5141485;27;20095;-65
2023/07/23 10:46:11;;;;;;;1.70;1.35;;;;;;;19.40;60.91;100621.81;5142647;27;20214;-67
2023/07/23 10:48:40;;;;;;;4.07;1.73;;;;;;;19.36;60.99;100618.03;5142092;27;20049;-66
2023/07/23 10:51:09;;;;;;;4.32;1.98;;;;;;;19.34;61.03;100625.69;5142397;27;20050;-65
2023/07/23 10:53:42;;;;;;;2.33;1.55;;;;;;;19.33;61.13;100619.44;5137340;27;20039;-66
2023/07/23 10:56:23;;;;;;;2.47;1.80;;;;;;;19.30;61.15;100616.47;5139177;27;20051;-67
2023/07/23 10:58:56;;;;;;;2.90;1.70;;;;;;;19.28;61.34;100614.03;5142508;27;20107;-65
2023/07/23 11:01:26;;;;;;;2.22;1.35;;;;;;;19.31;61.22;100621.63;5144124;27;20099;-66
2023/07/23 11:03:58;;;;;;;2.08;1.50;;;;;;;19.31;61.41;100618.91;5142941;27;20047;-65
2023/07/23 11:06:27;;;;;;;3.67;1.58;;;;;;;19.32;61.23;100619.72;5141681;27;20667;-66
2023/07/23 11:08:57;;;;;;;2.53;1.70;;;;;;;19.41;61.49;100627.00;5141608;27;20051;-65
2023/07/23 11:11:39;;;;;;;3.00;2.40;;;;;;;19.57;60.96;100622.25;5138965;27;20053;-64
2023/07/23 11:14:20;;;;;;;4.40;1.90;;;;;;;19.46;61.16;100616.03;4427711;27;10000215;-64
2023/07/23 11:16:49;;;;;;;2.58;1.52;;;;;;;19.44;61.14;100622.88;5135199;27;20086;-63
2023/07/23 11:19:18;;;;;;;6.22;2.00;;;;;;;19.47;61.60;100619.56;5137252;27;20043;-65
2023/07/23 11:21:49;;;;;;;3.10;1.80;;;;;;;19.48;60.95;100621.22;5136899;27;20067;-65
2023/07/23 11:24:18;;;;;;;3.83;1.75;;;;;;;19.45;61.58;100627.22;5133203;27;20046;-70
2023/07/23 11:26:46;;;;;;;3.30;1.98;;;;;;;19.56;61.56;100620.63;5140950;27;20063;-65
2023/07/23 11:29:14;;;;;;;3.35;1.83;;;;;;;19.46;61.19;100616.03;5134745;27;20088;-69
2023/07/23 11:31:45;;;;;;;3.08;1.50;;;;;;;19.59;60.96;100632.88;5137444;27;20119;-68